Time;durP1;ratioP1;P1;durP2;ratioP2;P2;SDS_P1;SDS_P2;PMS_P1;PMS_P2;Temp;Humidity;BMP_temperature;BMP_pressure;BME280_temperature;BME280_humidity;BME280_pressure;Samples;Min_cycle;Max_cycle;Signal;HPM_P1;HPM_P2
2022/04/13 00:01:03;;;;;;;13.48;7.07;;;;;;;8.28;47.50;101015.28;5011810;28;20434;-81
2022/04/13 00:03:30;;;;;;;12.93;7.03;;;;;;;8.22;46.98;101028.66;5000651;28;20238;-86
2022/04/13 00:05:59;;;;;;;12.23;6.90;;;;;;;8.21;47.30;101015.63;5028620;28;20037;-87
2022/04/13 00:08:29;;;;;;;11.40;6.90;;;;;;;8.22;47.37;101018.19;5019652;28;20416;-84
2022/04/13 00:10:57;;;;;;;13.93;7.30;;;;;;;8.18;47.83;101018.38;5028798;28;20064;-79
2022/04/13 00:13:24;;;;;;;14.60;7.35;;;;;;;8.10;47.45;101013.44;4996766;28;20079;-85
2022/04/13 00:15:53;;;;;;;16.88;7.25;;;;;;;8.08;48.00;101010.03;5027188;28;20057;-84
2022/04/13 00:18:21;;;;;;;10.82;6.60;;;;;;;8.04;47.73;101006.69;5013513;28;20033;-82
2022/04/13 00:20:49;;;;;;;11.52;6.70;;;;;;;8.00;47.92;101004.28;5001485;28;21270;-83
2022/04/13 00:23:17;;;;;;;16.17;7.50;;;;;;;7.96;48.29;101008.78;4991788;28;20129;-84
2022/04/13 00:25:48;;;;;;;12.43;6.55;;;;;;;7.92;48.59;101012.44;5009457;28;20102;-86
2022/04/13 00:28:16;;;;;;;13.95;7.00;;;;;;;7.86;48.33;101008.31;5012578;28;20053;-86
2022/04/13 00:30:46;;;;;;;13.77;8.10;;;;;;;7.85;48.65;101003.16;4992944;28;20182;-85
2022/04/13 00:33:14;;;;;;;14.40;7.47;;;;;;;7.83;48.89;101003.22;4996197;28;20046;-81
2022/04/13 00:35:43;;;;;;;13.32;6.85;;;;;;;7.81;49.05;101007.66;4992425;28;20044;-82
2022/04/13 00:38:10;;;;;;;12.07;7.65;;;;;;;7.84;49.17;101004.06;5011961;28;20483;-86
2022/04/13 00:40:39;;;;;;;14.70;7.00;;;;;;;7.81;48.97;100998.94;4996178;28;20137;-86
2022/04/13 00:43:10;;;;;;;13.27;6.85;;;;;;;7.76;49.13;101000.91;5011282;28;20049;-84
2022/04/13 00:45:37;;;;;;;14.60;7.22;;;;;;;7.73;49.35;101001.88;5009443;28;20046;-84
2022/04/13 00:48:06;;;;;;;12.32;7.90;;;;;;;7.69;49.54;101005.53;4997328;28;20334;-87
2022/04/13 00:50:34;;;;;;;12.68;7.35;;;;;;;7.67;49.88;101002.13;4993451;28;20132;-85
2022/04/13 00:53:03;;;;;;;12.15;7.28;;;;;;;7.66;49.91;100999.59;5004484;28;20655;-81
2022/04/13 00:55:37;;;;;;;18.80;8.00;;;;;;;7.65;49.76;101000.47;5009180;28;20160;-86
2022/04/13 00:58:06;;;;;;;13.68;7.93;;;;;;;7.69;49.78;101008.16;4997819;28;20068;-87
2022/04/13 01:00:38;;;;;;;11.75;6.95;;;;;;;7.70;49.68;101011.63;4992469;28;20074;-83
2022/04/13 01:03:07;;;;;;;16.40;7.53;;;;;;;7.63;50.17;101016.28;4991208;28;20072;-84
2022/04/13 01:05:36;;;;;;;12.48;7.88;;;;;;;7.61;49.94;101018.13;4987231;28;20053;-85
2022/04/13 01:08:06;;;;;;;13.43;7.97;;;;;;;7.60;50.07;101019.88;4991090;28;20059;-84
2022/04/13 01:10:33;;;;;;;14.35;7.30;;;;;;;7.55;50.51;101011.34;5008668;28;20060;-88
2022/04/13 01:13:05;;;;;;;11.57;7.63;;;;;;;7.52;50.28;101016.72;5000038;28;20489;-81
2022/04/13 01:15:33;;;;;;;15.60;8.50;;;;;;;7.50;50.93;101015.91;4988535;28;20057;-87
2022/04/13 01:18:01;;;;;;;12.68;7.38;;;;;;;7.46;50.97;101019.56;5011745;28;20045;-86
2022/04/13 01:20:29;;;;;;;12.50;7.15;;;;;;;7.46;50.77;101011.72;4980110;28;20050;-86
2022/04/13 01:22:56;;;;;;;11.90;6.63;;;;;;;7.43;51.23;101017.09;5003078;28;20033;-86
2022/04/13 01:25:24;;;;;;;13.55;7.50;;;;;;;7.37;50.96;101004.22;5022970;28;20045;-86
2022/04/13 01:27:54;;;;;;;16.50;8.18;;;;;;;7.32;51.13;101007.00;5006516;28;20056;-83
2022/04/13 01:30:24;;;;;;;13.07;7.15;;;;;;;7.34;51.51;101002.59;4994268;28;20050;-86
2022/04/13 01:32:52;;;;;;;18.05;7.90;;;;;;;7.32;51.53;101000.94;5008927;28;20496;-85
2022/04/13 01:35:22;;;;;;;14.02;8.23;;;;;;;7.28;51.73;100989.72;4993700;28;20063;-83
2022/04/13 01:37:51;;;;;;;14.40;7.05;;;;;;;7.27;51.96;100998.50;4978230;28;20049;-83
2022/04/13 01:40:18;;;;;;;13.40;7.22;;;;;;;7.27;51.54;100995.88;4977804;28;20060;-83
2022/04/13 01:42:47;;;;;;;11.10;7.25;;;;;;;7.22;51.99;100994.34;4994832;28;20030;-86
2022/04/13 01:45:19;;;;;;;14.52;7.93;;;;;;;7.21;51.97;100995.28;5005862;28;20492;-82
2022/04/13 01:47:51;;;;;;;14.45;7.30;;;;;;;7.21;52.40;100997.91;4994864;28;20076;-86
2022/04/13 01:50:19;;;;;;;13.77;7.82;;;;;;;7.20;52.33;100990.94;4990388;28;20045;-82
2022/04/13 01:52:47;;;;;;;16.08;7.57;;;;;;;7.21;52.17;100995.28;4997076;28;20068;-86
2022/04/13 01:55:18;;;;;;;17.02;7.72;;;;;;;7.18;52.25;100998.84;4981333;28;20381;-84
2022/04/13 01:57:45;;;;;;;14.30;7.60;;;;;;;7.17;52.28;100998.91;5009739;28;20052;-83
2022/04/13 02:00:29;;;;;;;16.70;7.38;;;;;;;7.10;52.97;101004.38;4990562;28;20046;-86
2022/04/13 02:02:56;;;;;;;13.80;7.50;;;;;;;7.06;52.96;100996.69;5009210;28;20136;-81
2022/04/13 02:05:25;;;;;;;12.88;7.95;;;;;;;7.02;52.74;101000.34;4990175;28;20059;-85
2022/04/13 02:07:52;;;;;;;13.15;7.88;;;;;;;7.02;53.49;100997.72;4997320;28;20120;-86
2022/04/13 02:10:21;;;;;;;17.25;8.60;;;;;;;6.99;53.53;100992.63;4993245;28;20541;-85
2022/04/13 02:12:49;;;;;;;15.57;7.63;;;;;;;6.94;53.37;100990.19;4989836;28;20163;-83
2022/04/13 02:15:16;;;;;;;11.80;7.85;;;;;;;6.90;53.52;100992.97;5014379;28;20069;-86
2022/04/13 02:17:44;;;;;;;13.30;7.30;;;;;;;6.87;53.56;100999.16;5009223;28;20038;-84
2022/04/13 02:20:14;;;;;;;14.13;7.75;;;;;;;6.84;53.65;100994.03;4992725;28;20049;-86
2022/04/13 02:22:44;;;;;;;13.60;7.10;;;;;;;6.83;53.75;100987.94;4993665;28;20103;-80
2022/04/13 02:25:13;;;;;;;15.10;8.10;;;;;;;6.82;54.69;100995.88;4974266;28;20052;-83
2022/04/13 02:27:42;;;;;;;16.23;8.00;;;;;;;6.79;54.27;100988.97;4977638;28;20065;-84
2022/04/13 02:30:10;;;;;;;12.68;7.57;;;;;;;6.79;53.91;100990.75;5008937;28;20042;-86
2022/04/13 02:32:43;;;;;;;15.88;7.63;;;;;;;6.78;54.53;100986.44;5029317;28;20034;-85
2022/04/13 02:35:12;;;;;;;15.55;7.95;;;;;;;6.76;54.54;100981.25;4994214;28;20092;-81
2022/04/13 02:37:42;;;;;;;16.33;9.13;;;;;;;6.79;54.67;100982.88;4993337;28;20489;-84
2022/04/13 02:40:12;;;;;;;19.90;8.00;;;;;;;6.72;55.06;100978.81;5010952;28;20049;-84
2022/04/13 02:42:39;;;;;;;14.48;7.13;;;;;;;6.71;54.62;100992.78;5010762;28;20052;-84
2022/04/13 02:45:07;;;;;;;16.58;7.50;;;;;;;6.68;54.73;100979.84;4997541;28;20381;-81
2022/04/13 02:47:35;;;;;;;13.30;8.57;;;;;;;6.65;55.08;100987.78;4996357;28;20050;-82
2022/04/13 02:50:08;;;;;;;15.02;7.82;;;;;;;6.63;55.13;100985.25;5009563;28;20394;-83
2022/04/13 02:52:37;;;;;;;12.98;7.15;;;;;;;6.67;55.28;100983.38;5014424;28;20361;-86
2022/04/13 02:55:06;;;;;;;14.75;8.38;;;;;;;6.68;54.99;100988.53;4998238;28;20037;-82
2022/04/13 02:57:33;;;;;;;16.95;8.30;;;;;;;6.66;55.19;100987.72;5001858;28;20044;-89
2022/04/13 03:00:06;;;;;;;15.73;8.43;;;;;;;6.61;55.32;100979.19;5001109;28;20045;-78
2022/04/13 03:02:35;;;;;;;15.50;8.23;;;;;;;6.58;55.79;100976.72;5006894;28;20041;-85
2022/04/13 03:05:04;;;;;;;15.95;9.00;;;;;;;6.54;55.44;100972.50;5009386;28;20045;-85
2022/04/13 03:07:32;;;;;;;13.00;7.55;;;;;;;6.51;56.43;100973.44;5026868;28;20084;-84
2022/04/13 03:10:00;;;;;;;15.00;8.13;;;;;;;6.48;56.12;100970.94;5001353;28;20037;-80
2022/04/13 03:12:35;;;;;;;18.13;8.82;;;;;;;6.44;56.49;100976.34;5010463;28;20656;-86
2022/04/13 03:15:09;;;;;;;17.27;8.65;;;;;;;6.41;56.36;100969.47;5000782;28;20041;-84
2022/04/13 03:17:38;;;;;;;17.17;8.95;;;;;;;6.38;56.39;100969.56;5018650;28;20060;-82
2022/04/13 03:20:09;;;;;;;20.55;8.70;;;;;;;6.39;56.57;100962.56;4999566;28;20053;-85
2022/04/13 03:22:41;;;;;;;19.08;8.23;;;;;;;6.40;56.21;100972.16;4987630;28;20049;-87
2022/04/13 03:25:13;;;;;;;17.15;8.02;;;;;;;6.36;56.51;100976.63;4996062;28;20111;-81
2022/04/13 03:27:42;;;;;;;13.25;8.20;;;;;;;6.34;56.81;100968.81;4986784;28;20109;-82
2022/04/13 03:30:13;;;;;;;21.00;8.95;;;;;;;6.37;56.94;100967.03;5022454;28;20037;-84
2022/04/13 03:32:40;;;;;;;14.25;8.10;;;;;;;6.39;56.82;100966.03;4996798;28;20439;-85
2022/04/13 03:35:13;;;;;;;15.45;8.07;;;;;;;6.37;56.40;100967.03;5015339;28;20104;-83
2022/04/13 03:37:43;;;;;;;16.58;7.80;;;;;;;6.36;56.60;100970.56;5019683;28;20136;-81
2022/04/13 03:40:12;;;;;;;15.35;8.95;;;;;;;6.33;56.82;100966.28;4999961;28;20452;-86
2022/04/13 03:42:46;;;;;;;16.42;8.68;;;;;;;6.35;56.72;100959.25;5001840;28;20069;-80
2022/04/13 03:45:13;;;;;;;15.98;9.35;;;;;;;6.38;56.63;100968.72;4983206;28;20041;-86
2022/04/13 03:47:44;;;;;;;20.17;9.15;;;;;;;6.36;56.86;100960.09;5018452;28;20060;-87
2022/04/13 03:50:21;;;;;;;18.38;8.65;;;;;;;6.30;56.75;100974.22;4999497;28;20112;-84
2022/04/13 03:52:49;;;;;;;15.93;8.50;;;;;;;6.29;56.94;100970.75;4999821;28;20111;-81
2022/04/13 03:55:19;;;;;;;10.82;7.10;;;;;;;6.29;57.28;100973.38;4997811;28;20042;-84
2022/04/13 03:57:55;;;;;;;16.33;8.93;;;;;;;6.39;56.81;100975.66;5000865;28;20172;-84
2022/04/13 04:00:32;;;;;;;17.67;8.38;;;;;;;6.40;56.92;100972.16;5034304;28;20056;-86
2022/04/13 04:02:59;;;;;;;15.85;8.57;;;;;;;6.36;56.49;100979.25;5008458;28;20064;-80
2022/04/13 04:05:27;;;;;;;17.08;8.80;;;;;;;6.32;56.84;100980.25;4995066;28;20042;-84
2022/04/13 04:07:55;;;;;;;16.60;8.55;;;;;;;6.29;56.66;100977.75;4992036;28;20075;-83
2022/04/13 04:10:22;;;;;;;15.38;8.25;;;;;;;6.28;57.11;100987.34;5035383;28;20484;-84
2022/04/13 04:12:50;;;;;;;20.00;9.20;;;;;;;6.26;57.08;100985.69;5019248;28;20073;-83
2022/04/13 04:15:22;;;;;;;17.88;8.98;;;;;;;6.25;57.45;100990.06;5015203;28;20127;-86
2022/04/13 04:17:55;;;;;;;17.85;8.93;;;;;;;6.22;57.56;100989.34;5004467;28;20464;-87
2022/04/13 04:20:23;;;;;;;16.88;9.10;;;;;;;6.24;57.36;100995.38;4996545;28;20045;-86
2022/04/13 04:22:55;;;;;;;13.75;7.25;;;;;;;6.26;57.12;100993.53;5016505;28;20084;-82
2022/04/13 04:25:23;;;;;;;14.60;9.13;;;;;;;6.25;57.29;100987.47;5012580;28;20080;-86
2022/04/13 04:27:52;;;;;;;16.05;8.35;;;;;;;6.29;57.09;100991.66;5012478;28;20371;-86
2022/04/13 04:30:19;;;;;;;22.52;9.32;;;;;;;6.28;56.94;100986.50;4996949;28;20061;-87
2022/04/13 04:32:49;;;;;;;19.65;8.73;;;;;;;6.30;57.15;100989.91;4995212;28;20034;-86
2022/04/13 04:35:17;;;;;;;17.73;8.32;;;;;;;6.31;57.16;100991.63;4994941;28;20045;-85
2022/04/13 04:37:45;;;;;;;15.70;8.23;;;;;;;6.30;57.59;100993.41;5008218;28;20412;-83
2022/04/13 04:40:13;;;;;;;17.98;8.38;;;;;;;6.33;57.13;100993.28;5010809;28;20049;-81
2022/04/13 04:42:47;;;;;;;19.10;9.05;;;;;;;6.33;57.34;100992.41;5029303;28;20095;-82
2022/04/13 04:45:19;;;;;;;16.45;8.48;;;;;;;6.38;57.05;100995.72;4995204;28;20052;-84
2022/04/13 04:47:47;;;;;;;13.80;8.00;;;;;;;6.41;56.79;100985.16;5011821;28;20453;-85
2022/04/13 04:50:19;;;;;;;16.83;8.60;;;;;;;6.47;57.33;100992.78;4997832;28;20101;-85
2022/04/13 04:52:49;;;;;;;21.50;9.32;;;;;;;6.48;56.88;100991.88;5004457;28;20068;-82
2022/04/13 04:55:21;;;;;;;18.60;8.52;;;;;;;6.52;57.03;100988.22;5002044;28;20034;-83
2022/04/13 04:57:48;;;;;;;15.55;10.10;;;;;;;6.58;56.37;100992.41;5019394;28;20087;-86
2022/04/13 05:00:20;;;;;;;16.98;8.45;;;;;;;6.58;56.60;100981.94;5001538;28;20038;-86
2022/04/13 05:02:50;;;;;;;17.17;8.65;;;;;;;6.63;56.49;100990.47;5001319;28;20072;-83
2022/04/13 05:05:19;;;;;;;17.17;8.57;;;;;;;6.69;56.59;100995.47;5000379;28;20132;-85
2022/04/13 05:07:47;;;;;;;17.77;8.80;;;;;;;6.74;56.03;100990.06;4993097;28;20053;-83
2022/04/13 05:10:15;;;;;;;20.15;8.23;;;;;;;6.83;55.75;100990.56;4997989;28;20136;-82
2022/04/13 05:12:43;;;;;;;19.27;9.10;;;;;;;6.87;56.14;100993.09;5001093;28;20080;-86
2022/04/13 05:15:12;;;;;;;13.73;8.75;;;;;;;6.95;55.79;100991.88;4994512;28;20045;-83
2022/04/13 05:17:41;;;;;;;17.02;9.00;;;;;;;7.01;55.83;100996.88;5013647;28;20049;-86
2022/04/13 05:20:10;;;;;;;14.40;7.72;;;;;;;7.04;55.29;100994.16;4992273;28;20099;-88
2022/04/13 05:22:37;;;;;;;16.73;8.57;;;;;;;7.16;54.67;100994.56;5014047;28;20075;-82
2022/04/13 05:25:12;;;;;;;17.63;8.95;;;;;;;7.24;54.88;101001.22;4996443;28;20446;-84
2022/04/13 05:27:40;;;;;;;17.02;7.80;;;;;;;7.24;54.56;101005.59;5002237;28;20393;-82
2022/04/13 05:30:13;;;;;;;16.35;8.40;;;;;;;7.32;54.54;101009.63;4982466;28;20050;-81
2022/04/13 05:33:00;;;;;;;18.55;9.00;;;;;;;7.48;53.94;101014.28;5012743;28;20319;-85
2022/04/13 05:43:49;;;;;;;16.23;8.65;;;;;;;7.80;53.18;101016.44;5024965;28;20075;-83
2022/04/13 05:46:20;;;;;;;15.57;7.18;;;;;;;7.90;52.82;101023.94;5009571;28;20453;-86
2022/04/13 05:48:50;;;;;;;15.70;8.23;;;;;;;7.97;52.38;101018.38;5016136;28;20042;-85
2022/04/13 05:51:20;;;;;;;13.25;7.47;;;;;;;8.06;52.76;101017.13;4978277;28;20049;-80
2022/04/13 05:53:49;;;;;;;15.13;9.63;;;;;;;8.18;52.31;101015.75;5007579;28;20053;-83
2022/04/13 05:56:18;;;;;;;14.48;9.10;;;;;;;8.20;51.58;101025.28;5007193;28;20053;-83
2022/04/13 05:58:47;;;;;;;20.00;9.50;;;;;;;8.34;51.72;101022.06;5007997;28;20346;-86
2022/04/13 06:01:16;;;;;;;15.25;8.18;;;;;;;8.50;50.92;101024.88;4986723;28;20048;-81
2022/04/13 06:03:43;;;;;;;15.48;8.25;;;;;;;8.52;51.51;101029.16;4978955;28;20111;-87
2022/04/13 06:06:12;;;;;;;17.52;8.63;;;;;;;8.58;51.18;101028.88;4996753;28;20083;-81
2022/04/13 06:08:41;;;;;;;19.20;8.70;;;;;;;8.70;51.52;101032.75;4981120;28;20069;-85
2022/04/13 06:11:09;;;;;;;19.38;9.40;;;;;;;8.81;50.83;101029.63;5014752;28;20048;-84
2022/04/13 06:13:36;;;;;;;15.50;8.50;;;;;;;8.94;50.71;101030.78;4993313;28;20124;-84
2022/04/13 06:16:04;;;;;;;16.50;9.20;;;;;;;9.12;50.05;101026.44;5009943;28;20140;-83
2022/04/13 06:18:35;;;;;;;18.58;10.32;;;;;;;9.29;49.75;101029.13;4982323;28;20049;-86
2022/04/13 06:21:02;;;;;;;21.20;10.10;;;;;;;9.31;49.52;101031.69;5006650;28;20071;-85
2022/04/13 06:23:31;;;;;;;16.98;8.82;;;;;;;9.56;48.68;101026.97;4992021;28;20141;-86
2022/04/13 06:25:58;;;;;;;18.00;9.63;;;;;;;9.70;48.54;101030.72;5009115;28;20072;-81
2022/04/13 06:28:27;;;;;;;18.50;9.30;;;;;;;9.88;48.13;101035.06;4983765;28;20132;-83
2022/04/13 06:30:55;;;;;;;15.25;9.32;;;;;;;9.95;47.97;101031.22;4993699;28;20046;-85
2022/04/13 06:33:23;;;;;;;14.85;8.60;;;;;;;10.05;47.47;101040.34;4980634;28;20084;-81
2022/04/13 06:36:27;;;;;;;22.20;9.50;;;;;;;10.24;47.54;101034.16;4999632;28;20139;-84
2022/04/13 06:38:55;;;;;;;17.25;9.20;;;;;;;10.17;47.19;101035.38;5002560;28;20112;-86
2022/04/13 06:41:23;;;;;;;17.23;9.40;;;;;;;10.30;47.25;101045.22;5010193;28;20154;-85
2022/04/13 06:43:52;;;;;;;14.13;8.73;;;;;;;10.41;46.95;101041.22;4979903;28;20193;-87
2022/04/13 06:46:20;;;;;;;13.52;8.10;;;;;;;10.43;46.75;101045.47;5026482;28;20046;-82
2022/04/13 06:48:50;;;;;;;15.55;8.80;;;;;;;10.64;46.25;101046.97;5014236;28;20141;-82
2022/04/13 06:51:18;;;;;;;19.42;9.20;;;;;;;10.72;46.10;101051.84;4988987;28;20385;-85
2022/04/13 06:53:46;;;;;;;17.70;9.85;;;;;;;10.86;46.08;101040.59;5008651;28;20103;-86
2022/04/13 06:56:13;;;;;;;15.93;8.73;;;;;;;10.98;45.93;101047.81;4977365;28;20641;-85
2022/04/13 06:58:46;;;;;;;18.33;8.88;;;;;;;11.24;45.51;101042.91;5026976;28;20060;-87
2022/04/13 07:01:14;;;;;;;16.17;9.15;;;;;;;11.39;44.92;101048.22;5008516;28;20041;-84
2022/04/13 07:03:43;;;;;;;22.10;9.35;;;;;;;11.54;44.61;101048.28;4978823;28;20148;-86
2022/04/13 07:06:11;;;;;;;18.02;9.35;;;;;;;11.55;44.53;101048.19;4994111;28;20048;-85
2022/04/13 07:09:00;;;;;;;18.25;9.07;;;;;;;11.63;44.34;101051.25;4982065;28;20050;-85
2022/04/13 07:11:27;;;;;;;16.98;9.20;;;;;;;11.65;44.32;101057.28;4998923;28;20069;-84
2022/04/13 07:13:55;;;;;;;13.82;8.93;;;;;;;11.84;43.55;101057.13;5014867;28;20504;-88
2022/04/13 07:16:25;;;;;;;16.58;9.25;;;;;;;11.87;43.52;101054.28;4996890;28;20049;-85
2022/04/13 07:18:53;;;;;;;15.45;9.27;;;;;;;12.02;43.34;101049.06;5000490;28;20063;-85
2022/04/13 07:21:20;;;;;;;17.20;8.88;;;;;;;12.15;43.14;101050.06;5022710;28;20128;-86
2022/04/13 07:24:10;;;;;;;14.25;8.35;;;;;;;12.26;42.74;101052.09;5011522;28;20042;-80
2022/04/13 07:26:42;;;;;;;13.27;8.30;;;;;;;12.37;42.27;101055.75;4998455;28;20120;-85
2022/04/13 07:29:10;;;;;;;14.82;8.75;;;;;;;12.45;42.08;101075.59;4999708;28;20043;-83
2022/04/13 07:32:03;;;;;;;15.90;8.85;;;;;;;12.57;41.70;101061.66;4998754;28;20049;-87
2022/04/13 07:34:33;;;;;;;17.83;8.25;;;;;;;12.75;41.87;101068.47;5001135;28;20083;-81
2022/04/13 07:37:05;;;;;;;15.13;8.32;;;;;;;12.90;41.34;101067.53;5006232;28;20038;-84
2022/04/13 07:39:35;;;;;;;22.50;9.75;;;;;;;13.07;41.05;101063.84;4998590;28;20054;-80
2022/04/13 07:42:03;;;;;;;17.83;8.73;;;;;;;13.28;40.67;101066.09;4975962;28;20046;-87
2022/04/13 07:44:31;;;;;;;22.58;8.73;;;;;;;13.30;40.57;101065.06;5014532;28;20154;-82
2022/04/13 07:47:19;;;;;;;18.92;9.32;;;;;;;13.28;40.71;101059.00;4999839;28;20045;-85
2022/04/13 07:49:47;;;;;;;12.68;7.60;;;;;;;13.42;40.19;101064.31;5013502;28;20033;-83
2022/04/13 07:52:16;;;;;;;18.27;8.80;;;;;;;13.51;40.18;101069.94;5013497;28;20061;-86
2022/04/13 07:54:45;;;;;;;19.52;9.20;;;;;;;13.65;39.90;101065.47;5013787;28;20041;-85
2022/04/13 07:57:13;;;;;;;15.95;8.63;;;;;;;13.78;39.77;101069.94;4998554;28;20053;-84
2022/04/13 07:59:41;;;;;;;20.10;9.13;;;;;;;14.03;38.96;101072.69;4990046;28;20619;-86
2022/04/13 08:02:09;;;;;;;20.90;9.07;;;;;;;14.07;39.38;101057.44;5004486;28;20291;-83
2022/04/13 08:04:37;;;;;;;19.17;10.27;;;;;;;14.20;39.04;101055.69;5012757;28;20041;-86
2022/04/13 08:07:07;;;;;;;17.10;9.32;;;;;;;14.40;38.98;101059.63;5007262;28;20060;-87
2022/04/13 08:09:37;;;;;;;19.85;9.10;;;;;;;14.52;38.39;101058.81;4996322;28;20068;-84
2022/04/13 08:12:04;;;;;;;19.88;8.82;;;;;;;14.46;37.99;101059.22;4999909;28;20133;-86
2022/04/13 08:14:32;;;;;;;14.38;9.25;;;;;;;14.77;38.12;101065.06;4981152;28;20045;-85
2022/04/13 08:17:03;;;;;;;18.70;9.27;;;;;;;14.80;37.84;101059.56;4999383;28;20382;-87
2022/04/13 08:19:31;;;;;;;18.98;9.15;;;;;;;15.00;37.54;101060.84;5009250;28;20041;-87
2022/04/13 08:21:59;;;;;;;17.67;9.05;;;;;;;15.16;37.06;101061.44;5013504;28;20075;-87
2022/04/13 08:24:28;;;;;;;20.20;9.70;;;;;;;15.11;37.23;101061.75;5003916;28;20052;-82
2022/04/13 08:26:58;;;;;;;15.77;9.13;;;;;;;15.17;36.98;101065.75;5030506;28;20172;-82
2022/04/13 08:29:27;;;;;;;17.75;9.52;;;;;;;15.30;36.86;101065.75;5028484;28;20061;-83
2022/04/13 08:31:56;;;;;;;17.38;9.93;;;;;;;15.04;37.00;101057.84;5001975;28;20045;-85
2022/04/13 08:34:24;;;;;;;18.52;9.70;;;;;;;15.28;36.86;101059.72;4978101;28;20046;-81
2022/04/13 08:36:55;;;;;;;18.67;9.35;;;;;;;15.40;36.77;101066.78;4996708;28;20068;-84
2022/04/13 08:40:03;;;;;;;19.50;8.70;;;;;;;15.45;36.53;101070.81;4976527;28;20050;-85
2022/04/13 08:42:34;;;;;;;14.68;8.85;;;;;;;15.51;36.42;101064.19;5027333;28;20045;-83
2022/04/13 08:45:28;;;;;;;14.63;9.63;;;;;;;15.45;37.05;101067.31;5028902;28;20040;-81
2022/04/13 08:47:56;;;;;;;18.60;9.27;;;;;;;15.79;36.18;101062.22;4992802;28;20038;-80
2022/04/13 08:50:28;;;;;;;16.15;7.80;;;;;;;15.88;35.99;101066.84;5010845;28;20340;-86
2022/04/13 08:53:06;;;;;;;15.30;9.07;;;;;;;15.90;36.30;101057.81;4983729;28;20030;-87
2022/04/13 08:55:34;;;;;;;15.32;8.95;;;;;;;15.91;35.76;101069.28;5030092;28;20050;-86
2022/04/13 08:58:25;;;;;;;19.13;9.70;;;;;;;16.01;35.43;101059.66;5000680;28;20055;-86
2022/04/13 09:00:57;;;;;;;15.95;9.20;;;;;;;16.07;35.75;101059.19;5011264;28;20068;-86
2022/04/13 09:03:41;;;;;;;15.15;8.85;;;;;;;16.22;35.61;101057.22;4997790;28;20077;-88
2022/04/13 09:06:10;;;;;;;16.20;8.65;;;;;;;16.33;35.76;101057.22;5011578;28;20046;-81
2022/04/13 09:08:57;;;;;;;12.48;8.60;;;;;;;16.42;36.07;101061.84;5019179;28;20048;-86
2022/04/13 09:11:24;;;;;;;15.80;9.63;;;;;;;16.68;35.36;101053.66;5012828;28;20116;-85
2022/04/13 09:13:53;;;;;;;14.77;9.13;;;;;;;16.81;34.86;101050.94;5010897;28;20088;-85
2022/04/13 09:16:27;;;;;;;14.93;8.77;;;;;;;17.11;34.35;101047.66;4996596;28;20052;-86
2022/04/13 09:18:55;;;;;;;15.70;10.10;;;;;;;17.20;34.19;101053.09;5011222;28;20144;-86
2022/04/13 09:21:23;;;;;;;16.30;9.30;;;;;;;17.23;34.12;101041.34;4993856;28;20046;-85
2022/04/13 09:23:55;;;;;;;14.25;8.50;;;;;;;17.38;34.00;101036.59;4997539;28;20417;-85
2022/04/13 09:26:25;;;;;;;14.95;9.68;;;;;;;17.68;33.66;101041.25;4954035;28;20054;-85
2022/04/13 09:28:54;;;;;;;18.27;9.60;;;;;;;17.78;33.37;101038.72;4993921;28;20354;-84
2022/04/13 09:31:22;;;;;;;15.98;9.68;;;;;;;17.92;32.88;101047.28;5012591;28;20120;-87
2022/04/13 09:33:54;;;;;;;15.75;9.07;;;;;;;18.04;32.91;101045.38;4993735;28;20055;-82
2022/04/13 09:36:25;;;;;;;19.83;9.20;;;;;;;18.01;32.79;101044.78;5012447;28;20489;-83
2022/04/13 09:38:56;;;;;;;15.23;8.70;;;;;;;17.90;33.09;101038.53;5010777;28;20317;-85
2022/04/13 09:41:38;;;;;;;15.32;9.45;;;;;;;18.21;32.88;101039.47;5021358;28;20240;-83
2022/04/13 09:44:18;;;;;;;16.50;9.57;;;;;;;18.52;32.26;101042.22;5024738;28;20128;-87
2022/04/13 09:46:45;;;;;;;14.23;8.85;;;;;;;18.62;32.34;101042.25;4980885;28;20045;-84
2022/04/13 09:49:21;;;;;;;14.27;8.80;;;;;;;18.59;32.14;101032.69;4996867;28;20040;-85
2022/04/13 09:51:50;;;;;;;13.35;8.25;;;;;;;18.86;31.70;101036.66;5013532;28;20136;-87
2022/04/13 09:54:26;;;;;;;15.70;8.73;;;;;;;18.70;31.33;101023.81;4996673;28;20129;-84
2022/04/13 09:56:54;;;;;;;20.88;9.43;;;;;;;18.68;31.60;101031.91;4995848;28;20362;-83
2022/04/13 09:59:25;;;;;;;16.35;9.20;;;;;;;18.86;31.50;101024.16;5012489;28;20454;-84
2022/04/13 10:01:53;;;;;;;14.75;8.07;;;;;;;18.86;31.87;101026.81;5002621;28;20053;-87
2022/04/13 10:04:31;;;;;;;14.52;8.73;;;;;;;19.01;31.50;101019.31;4994630;28;20046;-86
2022/04/13 10:07:19;;;;;;;19.80;8.82;;;;;;;19.38;31.46;101019.53;5011684;28;20044;-81
2022/04/13 10:09:51;;;;;;;15.35;8.38;;;;;;;19.18;30.93;101013.34;4997789;28;20052;-84
2022/04/13 10:12:20;;;;;;;14.90;8.10;;;;;;;19.16;31.61;101017.94;5010934;28;20064;-86
2022/04/13 10:14:47;;;;;;;21.38;8.90;;;;;;;18.94;31.24;101015.47;5037656;28;20045;-85
2022/04/13 10:17:20;;;;;;;16.50;8.68;;;;;;;19.36;31.66;101013.50;5037943;28;20095;-84
2022/04/13 10:19:58;;;;;;;17.60;9.85;;;;;;;19.63;31.16;101017.34;5004925;28;20104;-87
2022/04/13 10:22:29;;;;;;;16.75;9.02;;;;;;;19.95;30.79;101017.09;5007525;28;20136;-85
2022/04/13 10:25:16;;;;;;;16.10;8.50;;;;;;;19.82;30.10;101008.53;5019173;28;20477;-86
2022/04/13 10:27:58;;;;;;;12.73;8.68;;;;;;;20.04;29.79;101016.25;4981084;28;20060;-86
2022/04/13 10:30:30;;;;;;;15.75;8.70;;;;;;;20.05;29.79;101015.25;4992520;28;20077;-87
2022/04/13 10:32:59;;;;;;;15.40;8.45;;;;;;;20.22;29.48;101016.38;5001716;28;20033;-84
2022/04/13 10:35:34;;;;;;;13.75;8.95;;;;;;;20.15;29.44;101010.72;4991411;28;20061;-87
2022/04/13 10:38:03;;;;;;;14.20;9.23;;;;;;;19.99;29.41;101013.13;4977979;28;20049;-83
2022/04/13 10:40:40;;;;;;;14.90;9.02;;;;;;;20.24;29.46;101017.03;5009587;28;20048;-87
2022/04/13 10:43:11;;;;;;;11.45;8.30;;;;;;;20.44;29.14;101020.50;5012528;28;20076;-85
2022/04/13 10:45:40;;;;;;;17.75;8.27;;;;;;;20.30;29.67;101016.47;4978243;28;20049;-86
2022/04/13 10:48:10;;;;;;;14.73;7.75;;;;;;;20.71;29.80;100999.22;5000908;28;20439;-87
2022/04/13 10:50:42;;;;;;;13.05;8.38;;;;;;;20.74;28.97;101020.31;4991577;28;20041;-87
2022/04/13 10:53:28;;;;;;;15.20;7.97;;;;;;;20.82;28.69;101010.72;4998954;28;20076;-86
2022/04/13 10:56:04;;;;;;;10.27;7.47;;;;;;;20.98;27.92;101009.09;4988294;28;20045;-88
2022/04/13 10:58:50;;;;;;;15.05;7.60;;;;;;;20.93;28.62;101002.47;4995034;28;20056;-88
2022/04/13 11:01:20;;;;;;;12.80;8.65;;;;;;;21.17;28.38;101005.47;5026843;28;20420;-86
2022/04/13 11:03:48;;;;;;;14.52;7.63;;;;;;;21.62;28.22;100993.91;4975024;28;20052;-86
2022/04/13 11:06:15;;;;;;;12.68;7.63;;;;;;;21.98;28.00;101005.47;4993714;28;20602;-82
2022/04/13 11:09:17;;;;;;;14.45;8.48;;;;;;;22.05;27.30;100999.47;5008437;28;20055;-88
2022/04/13 11:11:47;;;;;;;33.05;8.95;;;;;;;21.95;27.52;100997.72;4980091;28;20053;-88
2022/04/13 11:14:23;;;;;;;11.88;8.30;;;;;;;22.32;27.00;101002.03;4996036;28;20045;-88
2022/04/13 11:17:06;;;;;;;12.93;8.70;;;;;;;22.32;27.12;100996.69;4997267;28;20040;-84
2022/04/13 11:19:37;;;;;;;12.85;8.50;;;;;;;22.11;26.94;101009.56;5005937;28;20046;-87
2022/04/13 11:22:10;;;;;;;13.95;7.75;;;;;;;22.27;26.99;101003.53;4981577;28;20113;-85
2022/04/13 11:24:47;;;;;;;13.27;7.57;;;;;;;22.42;27.01;101007.28;5003040;28;20049;-85
2022/04/13 11:27:15;;;;;;;13.10;7.65;;;;;;;22.56;26.75;101005.88;5019757;28;20115;-82
2022/04/13 11:29:44;;;;;;;15.38;7.95;;;;;;;22.71;26.79;100998.94;4999371;28;20154;-81
2022/04/13 11:32:15;;;;;;;14.73;7.57;;;;;;;22.95;26.78;100998.22;5000110;28;20111;-87
2022/04/13 11:34:50;;;;;;;12.55;7.85;;;;;;;23.30;25.99;101007.91;4993031;28;20140;-87
2022/04/13 11:37:35;;;;;;;13.35;8.63;;;;;;;23.61;25.87;101004.63;5012455;28;20038;-85
2022/04/13 11:40:11;;;;;;;11.48;7.57;;;;;;;23.78;25.24;101000.13;4996596;28;20051;-87
2022/04/13 11:42:42;;;;;;;15.45;7.57;;;;;;;24.09;24.89;100997.59;4979320;28;20053;-87
2022/04/13 11:45:16;;;;;;;10.88;6.85;;;;;;;24.43;24.28;100994.72;4994377;28;20113;-86
2022/04/13 11:47:50;;;;;;;10.32;6.90;;;;;;;24.72;23.89;101005.75;4999774;28;20060;-88